Tuskahoma, Oklahoma
Current Conditions -  °F | °C
As of 12:53 PM on Wednesday 26 Nov 2014 (Local Time) from KMLC Reporting Station
Few Clouds Few Clouds  
Wind Chill: 14°   Ceiling: Unl
Heat Index: 14°   Visibility: 10mi
Dew Point: -2°   Wind: 17mph
Humidity: 33%   Direction: 320°NW
Pressure: 30.15"   Gusts: 25mph
Location:  34.62°N, 95.28°W
Report Text: KMLC 261853Z AUTO 32015G22KT 10SM FEW100 14/M02 A3015 RMK AO2 SLP209 T01391022
Loading
Personal Weather Stations






























Interactive Weather Map New forecast layout! Learn more

10-Day Weather Forecast

Advertisements
Track Severe Weather on mobile